Time;durP1;ratioP1;P1;durP2;ratioP2;P2;SDS_P1;SDS_P2;PMS_P1;PMS_P2;Temp;Humidity;BMP_temperature;BMP_pressure;BME280_temperature;BME280_humidity;BME280_pressure;Samples;Min_cycle;Max_cycle;Signal;HPM_P1;HPM_P2
2022/04/24 00:01:01;;;;;;;5.80;5.10;;;;;;;;;;5004459;28;20237;-69
2022/04/24 00:03:27;;;;;;;5.87;4.73;;;;;;;;;;5009853;28;20225;-71
2022/04/24 00:05:52;;;;;;;5.77;5.17;;;;;;;;;;4997875;28;20176;-71
2022/04/24 00:08:17;;;;;;;5.43;4.93;;;;;;;;;;5003817;28;20549;-71
2022/04/24 00:10:42;;;;;;;5.47;4.97;;;;;;;;;;5010484;28;20286;-69
2022/04/24 00:13:08;;;;;;;5.43;4.93;;;;;;;;;;5004964;28;20182;-71
2022/04/24 00:15:33;;;;;;;5.80;5.00;;;;;;;;;;5006842;28;20730;-71
2022/04/24 00:17:58;;;;;;;5.43;4.93;;;;;;;;;;5006009;28;20622;-70
2022/04/24 00:20:23;;;;;;;14.90;5.77;;;;;;;;;;5007040;28;20277;-70
2022/04/24 00:22:48;;;;;;;5.50;5.00;;;;;;;;;;5011884;28;20676;-71
2022/04/24 00:25:13;;;;;;;5.87;5.30;;;;;;;;;;5009432;28;20191;-71
2022/04/24 00:27:39;;;;;;;5.77;5.10;;;;;;;;;;5005308;28;20258;-72
2022/04/24 00:30:04;;;;;;;7.93;5.83;;;;;;;;;;5005875;28;20627;-71
2022/04/24 00:32:29;;;;;;;6.23;5.30;;;;;;;;;;5006922;28;20180;-71
2022/04/24 00:34:54;;;;;;;6.60;5.43;;;;;;;;;;5004374;28;20771;-71
2022/04/24 00:37:19;;;;;;;6.73;5.20;;;;;;;;;;5005521;28;20179;-71
2022/04/24 00:39:45;;;;;;;7.30;5.30;;;;;;;;;;5008856;28;20266;-71
2022/04/24 00:42:10;;;;;;;6.10;5.50;;;;;;;;;;5004941;28;20249;-71
2022/04/24 00:44:35;;;;;;;5.63;5.07;;;;;;;;;;5009409;28;20265;-71
2022/04/24 00:47:02;;;;;;;6.03;5.53;;;;;;;;;;5009883;28;20533;-71
2022/04/24 00:49:28;;;;;;;7.40;6.13;;;;;;;;;;5008755;28;20265;-71
2022/04/24 00:51:54;;;;;;;6.53;5.63;;;;;;;;;;5007794;28;20208;-71
2022/04/24 00:54:19;;;;;;;6.30;5.70;;;;;;;;;;5009948;28;20601;-71
2022/04/24 00:56:45;;;;;;;6.40;5.50;;;;;;;;;;5008744;28;20183;-69
2022/04/24 00:59:11;;;;;;;6.37;5.77;;;;;;;;;;5010319;28;20201;-71
2022/04/24 01:01:37;;;;;;;5.90;5.40;;;;;;;;;;5006607;28;20222;-70
2022/04/24 01:04:04;;;;;;;6.87;5.73;;;;;;;;;;5010827;28;20207;-70
2022/04/24 01:06:33;;;;;;;5.93;5.43;;;;;;;;;;5010987;28;20179;-71
2022/04/24 01:09:12;;;;;;;6.77;5.90;;;;;;;;;;5008932;28;20616;-70
2022/04/24 01:11:37;;;;;;;6.97;6.27;;;;;;;;;;5008733;28;20210;-72
2022/04/24 01:14:03;;;;;;;6.47;5.67;;;;;;;;;;5014496;28;20680;-70
2022/04/24 01:16:28;;;;;;;7.73;6.57;;;;;;;;;;5014601;28;20190;-70
2022/04/24 01:18:54;;;;;;;6.27;5.67;;;;;;;;;;5013758;28;20215;-70
2022/04/24 01:21:19;;;;;;;6.70;6.00;;;;;;;;;;5014610;28;20289;-70
2022/04/24 01:23:44;;;;;;;6.20;5.40;;;;;;;;;;5013975;28;20226;-71
2022/04/24 01:26:09;;;;;;;7.63;6.10;;;;;;;;;;5015621;28;20646;-71
2022/04/24 01:28:35;;;;;;;7.53;6.83;;;;;;;;;;5012165;28;20183;-71
2022/04/24 01:31:00;;;;;;;7.03;6.30;;;;;;;;;;5011447;28;20191;-71
2022/04/24 01:33:26;;;;;;;6.63;6.03;;;;;;;;;;5012172;28;20667;-70
2022/04/24 01:35:51;;;;;;;7.33;6.63;;;;;;;;;;5010558;28;20198;-71
2022/04/24 01:38:16;;;;;;;7.53;6.67;;;;;;;;;;5011891;28;20262;-70
2022/04/24 01:40:41;;;;;;;8.40;6.95;;;;;;;;;;5005234;28;20195;-71
2022/04/24 01:43:07;;;;;;;8.80;6.93;;;;;;;;;;5007403;28;20307;-71
2022/04/24 01:45:32;;;;;;;7.53;6.83;;;;;;;;;;5013977;28;20198;-72
2022/04/24 01:47:57;;;;;;;9.17;7.60;;;;;;;;;;5013214;28;20197;-71
2022/04/24 01:50:23;;;;;;;7.93;7.07;;;;;;;;;;5007042;28;20424;-71
2022/04/24 01:52:48;;;;;;;9.30;8.13;;;;;;;;;;5010103;28;20184;-71
2022/04/24 01:55:13;;;;;;;8.70;7.90;;;;;;;;;;5014082;28;20194;-71
2022/04/24 01:57:38;;;;;;;8.13;7.20;;;;;;;;;;5010934;28;20721;-72
2022/04/24 02:00:03;;;;;;;9.00;6.80;;;;;;;;;;5015216;28;20210;-71
2022/04/24 02:02:29;;;;;;;8.70;7.20;;;;;;;;;;5012103;28;20754;-71
2022/04/24 02:04:54;;;;;;;10.18;8.02;;;;;;;;;;5013581;28;20556;-71
2022/04/24 02:07:19;;;;;;;10.27;8.00;;;;;;;;;;5011255;28;20205;-71
2022/04/24 02:09:44;;;;;;;9.07;7.47;;;;;;;;;;5014089;28;20261;-72
2022/04/24 02:12:09;;;;;;;9.40;8.03;;;;;;;;;;5012198;28;20178;-71
2022/04/24 02:14:35;;;;;;;9.23;8.33;;;;;;;;;;5009831;28;20206;-71
2022/04/24 02:17:00;;;;;;;9.87;8.87;;;;;;;;;;5013210;28;20175;-71
2022/04/24 02:19:25;;;;;;;9.37;7.60;;;;;;;;;;5013189;28;20191;-69
2022/04/24 02:21:50;;;;;;;8.73;7.90;;;;;;;;;;5013836;28;20518;-69
2022/04/24 02:24:15;;;;;;;9.43;8.23;;;;;;;;;;5014288;28;20266;-70
2022/04/24 02:26:41;;;;;;;8.90;8.07;;;;;;;;;;5013502;28;20225;-72
2022/04/24 02:29:06;;;;;;;10.33;8.73;;;;;;;;;;5013231;28;20175;-71
2022/04/24 02:31:31;;;;;;;11.30;8.67;;;;;;;;;;5009464;28;20223;-69
2022/04/24 02:33:56;;;;;;;9.97;8.57;;;;;;;;;;5015997;28;20203;-71
2022/04/24 02:36:22;;;;;;;10.57;9.27;;;;;;;;;;5010194;28;20183;-71
2022/04/24 02:38:47;;;;;;;9.70;8.70;;;;;;;;;;5010177;28;20714;-69
2022/04/24 02:41:12;;;;;;;10.10;9.00;;;;;;;;;;5010072;28;20203;-69
2022/04/24 02:43:37;;;;;;;9.87;8.87;;;;;;;;;;5010881;28;20222;-69
2022/04/24 02:46:02;;;;;;;9.77;8.77;;;;;;;;;;5011029;28;20186;-73
2022/04/24 02:48:27;;;;;;;12.33;10.13;;;;;;;;;;5008317;28;20590;-72
2022/04/24 02:50:53;;;;;;;10.80;9.70;;;;;;;;;;5011897;28;20218;-69
2022/04/24 02:53:18;;;;;;;16.97;9.70;;;;;;;;;;5010911;28;20190;-71
2022/04/24 02:55:43;;;;;;;12.27;10.13;;;;;;;;;;5013313;28;20555;-71
2022/04/24 02:58:09;;;;;;;9.53;8.53;;;;;;;;;;5011523;28;20270;-71
2022/04/24 03:00:42;;;;;;;12.10;10.43;;;;;;;;;;5005391;28;20218;-71
2022/04/24 03:03:08;;;;;;;11.23;9.53;;;;;;;;;;5010775;28;20203;-71
2022/04/24 03:05:33;;;;;;;10.77;9.40;;;;;;;;;;5012332;28;20181;-69
2022/04/24 03:07:59;;;;;;;11.97;9.83;;;;;;;;;;5012693;28;20187;-72
2022/04/24 03:10:25;;;;;;;13.73;9.93;;;;;;;;;;5013406;28;20256;-71
2022/04/24 03:12:50;;;;;;;11.73;9.60;;;;;;;;;;5012828;28;20749;-71
2022/04/24 03:15:15;;;;;;;12.83;10.13;;;;;;;;;;5012641;28;20187;-71
2022/04/24 03:17:41;;;;;;;11.80;10.13;;;;;;;;;;5010629;28;20610;-71
2022/04/24 03:20:07;;;;;;;13.43;9.60;;;;;;;;;;5012039;28;20230;-70
2022/04/24 03:22:33;;;;;;;10.73;9.30;;;;;;;;;;5010889;28;20213;-71
2022/04/24 03:25:02;;;;;;;11.53;9.33;;;;;;;;;;5012669;28;20614;-71
2022/04/24 03:27:28;;;;;;;10.27;8.90;;;;;;;;;;5011795;28;20749;-68
2022/04/24 03:29:53;;;;;;;10.27;9.10;;;;;;;;;;5010937;28;20248;-69
2022/04/24 03:32:18;;;;;;;12.70;9.87;;;;;;;;;;5007999;28;20177;-71
2022/04/24 03:34:43;;;;;;;9.53;8.63;;;;;;;;;;5007655;28;20195;-71
2022/04/24 03:37:08;;;;;;;13.27;9.47;;;;;;;;;;5004786;28;20582;-68
2022/04/24 03:39:34;;;;;;;10.90;9.10;;;;;;;;;;5005773;28;20190;-71
2022/04/24 03:41:59;;;;;;;11.53;8.57;;;;;;;;;;5004055;28;20583;-71
2022/04/24 03:44:25;;;;;;;12.90;8.73;;;;;;;;;;5010933;28;20649;-70
2022/04/24 03:46:50;;;;;;;10.37;8.63;;;;;;;;;;5011754;28;20210;-70
2022/04/24 03:49:16;;;;;;;12.83;9.37;;;;;;;;;;5010815;28;20186;-70
2022/04/24 03:51:41;;;;;;;12.20;9.47;;;;;;;;;;5003880;28;20651;-71
2022/04/24 03:54:06;;;;;;;11.27;8.70;;;;;;;;;;5006360;28;20633;-71
2022/04/24 03:56:31;;;;;;;10.63;8.93;;;;;;;;;;5003635;28;20270;-71
2022/04/24 03:59:00;;;;;;;10.83;9.73;;;;;;;;;;5000912;28;20175;-70
2022/04/24 04:01:25;;;;;;;9.83;8.73;;;;;;;;;;4994712;28;20226;-71
2022/04/24 04:03:51;;;;;;;14.17;9.97;;;;;;;;;;5011199;28;20222;-71
2022/04/24 04:06:16;;;;;;;9.93;8.93;;;;;;;;;;5008866;28;20266;-71
2022/04/24 04:08:41;;;;;;;10.40;8.40;;;;;;;;;;5001217;28;20241;-70
2022/04/24 04:11:07;;;;;;;10.30;8.23;;;;;;;;;;5008029;28;20301;-71
2022/04/24 04:13:32;;;;;;;9.53;8.63;;;;;;;;;;5007671;28;20179;-71
2022/04/24 04:15:58;;;;;;;9.53;8.53;;;;;;;;;;5009517;28;20253;-70
2022/04/24 04:18:23;;;;;;;10.53;8.27;;;;;;;;;;5005520;28;20179;-70
2022/04/24 04:20:49;;;;;;;11.07;9.63;;;;;;;;;;5009716;28;20217;-72
2022/04/24 04:23:14;;;;;;;11.63;8.97;;;;;;;;;;5007466;28;20297;-72
2022/04/24 04:25:39;;;;;;;14.13;8.40;;;;;;;;;;5012082;28;20182;-71
2022/04/24 04:28:04;;;;;;;9.07;7.77;;;;;;;;;;5010686;28;20211;-71
2022/04/24 04:30:29;;;;;;;9.10;8.20;;;;;;;;;;5013000;28;20195;-71
2022/04/24 04:32:55;;;;;;;10.50;8.17;;;;;;;;;;5012130;28;20186;-71
2022/04/24 04:35:23;;;;;;;8.93;7.53;;;;;;;;;;5011185;28;20186;-71
2022/04/24 04:37:49;;;;;;;10.93;8.50;;;;;;;;;;5004472;28;20270;-71
2022/04/24 04:40:14;;;;;;;9.27;8.27;;;;;;;;;;5009640;28;20199;-71
2022/04/24 04:42:39;;;;;;;9.70;7.53;;;;;;;;;;5004681;28;20576;-71
2022/04/24 04:45:06;;;;;;;8.90;8.00;;;;;;;;;;5010687;28;20595;-72
2022/04/24 04:47:31;;;;;;;8.70;7.80;;;;;;;;;;5008232;28;20194;-71
2022/04/24 04:49:56;;;;;;;10.73;8.13;;;;;;;;;;5009098;28;20171;-72
2022/04/24 04:52:22;;;;;;;9.10;7.93;;;;;;;;;;5011651;28;20218;-69
2022/04/24 04:54:47;;;;;;;11.20;8.10;;;;;;;;;;5005681;28;20262;-71
2022/04/24 04:57:12;;;;;;;8.37;7.57;;;;;;;;;;5011433;28;20616;-71
2022/04/24 04:59:37;;;;;;;7.80;7.00;;;;;;;;;;5008508;28;20189;-71
2022/04/24 05:02:03;;;;;;;7.17;6.47;;;;;;;;;;5000226;28;20201;-71
2022/04/24 05:04:28;;;;;;;8.93;7.07;;;;;;;;;;5006262;28;20680;-71
2022/04/24 05:06:53;;;;;;;9.07;8.17;;;;;;;;;;5005486;28;20354;-70
2022/04/24 05:09:18;;;;;;;9.10;7.83;;;;;;;;;;5008107;28;20179;-71
2022/04/24 05:11:44;;;;;;;8.37;6.97;;;;;;;;;;5008078;28;20202;-71
2022/04/24 05:14:09;;;;;;;8.90;8.00;;;;;;;;;;5008695;28;20274;-71
2022/04/24 05:16:34;;;;;;;10.60;8.47;;;;;;;;;;5009838;28;20187;-71
2022/04/24 05:18:59;;;;;;;9.60;7.23;;;;;;;;;;5010567;28;20190;-70
2022/04/24 05:21:25;;;;;;;10.73;7.20;;;;;;;;;;5005870;28;20555;-70
2022/04/24 05:23:52;;;;;;;8.40;6.50;;;;;;;;;;5007298;28;20203;-70
2022/04/24 05:26:17;;;;;;;8.97;7.10;;;;;;;;;;5003706;28;20562;-70
2022/04/24 05:28:42;;;;;;;9.97;7.80;;;;;;;;;;5009118;28;20175;-71
2022/04/24 05:31:07;;;;;;;7.23;6.50;;;;;;;;;;5011124;28;20535;-71
2022/04/24 05:33:32;;;;;;;8.07;7.27;;;;;;;;;;5010992;28;20231;-71
2022/04/24 05:35:58;;;;;;;8.03;7.23;;;;;;;;;;5010328;28;20210;-71
2022/04/24 05:38:23;;;;;;;15.17;8.50;;;;;;;;;;5009358;28;20609;-69
2022/04/24 05:40:48;;;;;;;7.50;6.80;;;;;;;;;;5007191;28;20210;-71
2022/04/24 05:43:13;;;;;;;7.23;6.53;;;;;;;;;;5010186;28;20213;-71
2022/04/24 05:45:38;;;;;;;7.87;6.83;;;;;;;;;;5008921;28;20194;-70
2022/04/24 05:48:04;;;;;;;8.87;6.57;;;;;;;;;;5007573;28;20175;-71
2022/04/24 05:50:29;;;;;;;8.67;6.70;;;;;;;;;;5011375;28;20202;-71
2022/04/24 05:52:55;;;;;;;7.40;6.70;;;;;;;;;;5013711;28;20206;-71
2022/04/24 05:55:20;;;;;;;6.70;5.60;;;;;;;;;;5005962;28;20183;-71
2022/04/24 05:57:45;;;;;;;10.67;7.13;;;;;;;;;;5015242;28;20191;-71
2022/04/24 06:00:12;;;;;;;7.13;6.43;;;;;;;;;;5014368;28;20207;-69
2022/04/24 06:02:38;;;;;;;8.47;7.10;;;;;;;;;;5011478;28;20215;-70
2022/04/24 06:05:03;;;;;;;7.27;6.40;;;;;;;;;;5014812;28;20653;-72
2022/04/24 06:07:28;;;;;;;7.10;6.40;;;;;;;;;;5012103;28;20179;-72
2022/04/24 06:09:53;;;;;;;7.97;6.27;;;;;;;;;;5009920;28;20201;-71
2022/04/24 06:12:19;;;;;;;8.80;6.20;;;;;;;;;;5010811;28;20182;-71
2022/04/24 06:14:44;;;;;;;9.40;6.40;;;;;;;;;;5011564;28;20183;-71
2022/04/24 06:17:09;;;;;;;11.40;7.20;;;;;;;;;;4999163;28;20673;-71
2022/04/24 06:19:34;;;;;;;8.27;6.60;;;;;;;;;;5012508;28;20252;-71
2022/04/24 06:22:00;;;;;;;7.93;6.90;;;;;;;;;;5007743;28;20195;-71
2022/04/24 06:24:25;;;;;;;8.77;6.73;;;;;;;;;;5013064;28;20282;-70
2022/04/24 06:26:50;;;;;;;6.63;6.03;;;;;;;;;;5013158;28;20202;-71
2022/04/24 06:29:15;;;;;;;9.53;6.63;;;;;;;;;;5011918;28;20177;-71
2022/04/24 06:31:41;;;;;;;7.40;5.93;;;;;;;;;;5011453;28;20244;-71
2022/04/24 06:34:06;;;;;;;8.27;6.70;;;;;;;;;;5009893;28;20261;-71
2022/04/24 06:36:31;;;;;;;8.53;5.73;;;;;;;;;;5012128;28;20187;-70
2022/04/24 06:38:56;;;;;;;6.23;5.60;;;;;;;;;;5009320;28;20190;-70
2022/04/24 06:41:21;;;;;;;7.57;6.23;;;;;;;;;;5009187;28;20680;-70
2022/04/24 06:43:46;;;;;;;6.47;5.80;;;;;;;;;;5011742;28;20195;-71
2022/04/24 06:46:12;;;;;;;10.57;5.70;;;;;;;;;;5011873;28;20641;-70
2022/04/24 06:48:37;;;;;;;7.17;6.20;;;;;;;;;;5009154;28;20195;-71
2022/04/24 06:51:02;;;;;;;8.03;6.33;;;;;;;;;;5013353;28;20664;-68
2022/04/24 06:53:28;;;;;;;9.17;6.23;;;;;;;;;;5012447;28;20182;-72
2022/04/24 06:55:53;;;;;;;8.53;6.03;;;;;;;;;;5009772;28;20175;-70
2022/04/24 06:58:19;;;;;;;6.87;6.00;;;;;;;;;;5015395;28;20565;-71
2022/04/24 07:00:45;;;;;;;6.70;5.77;;;;;;;;;;5015581;28;20215;-71
2022/04/24 07:03:16;;;;;;;6.57;5.97;;;;;;;;;;5013836;28;20199;-72
2022/04/24 07:05:42;;;;;;;6.93;6.23;;;;;;;;;;5018828;28;20329;-69
2022/04/24 07:08:07;;;;;;;6.73;5.60;;;;;;;;;;5012549;28;20175;-71
2022/04/24 07:10:32;;;;;;;8.07;5.73;;;;;;;;;;5005356;28;20254;-70
2022/04/24 07:12:58;;;;;;;6.10;5.33;;;;;;;;;;5018341;28;20175;-71
2022/04/24 07:15:23;;;;;;;6.53;5.93;;;;;;;;;;5013401;28;20179;-70
2022/04/24 07:17:49;;;;;;;6.97;5.60;;;;;;;;;;5014443;28;20709;-70
2022/04/24 07:20:15;;;;;;;7.07;6.38;;;;;;;;;;5016522;28;20194;-70
2022/04/24 07:22:47;;;;;;;9.25;5.97;;;;;;;;;;5015458;28;20270;-70
2022/04/24 07:25:13;;;;;;;6.30;5.65;;;;;;;;;;5014403;28;20641;-70
2022/04/24 07:27:39;;;;;;;6.43;5.82;;;;;;;;;;5013299;28;20167;-70
2022/04/24 07:30:04;;;;;;;6.60;6.00;;;;;;;;;;5014542;28;20226;-72
2022/04/24 07:32:37;;;;;;;7.13;6.43;;;;;;;;;;5014575;28;20334;-71
2022/04/24 07:35:02;;;;;;;6.38;5.40;;;;;;;;;;5013130;28;20202;-71
2022/04/24 07:37:27;;;;;;;10.57;6.53;;;;;;;;;;5013333;28;20653;-69
2022/04/24 07:39:52;;;;;;;6.53;5.93;;;;;;;;;;5013774;28;20186;-70
2022/04/24 07:42:19;;;;;;;7.20;6.50;;;;;;;;;;5010341;28;20409;-70
2022/04/24 07:44:44;;;;;;;6.45;5.80;;;;;;;;;;5013565;28;20934;-70
2022/04/24 07:47:09;;;;;;;7.90;6.32;;;;;;;;;;5013333;28;20187;-70
2022/04/24 07:49:34;;;;;;;6.27;5.77;;;;;;;;;;5012338;28;20254;-70
2022/04/24 07:51:59;;;;;;;8.63;6.43;;;;;;;;;;5012571;28;20456;-72
2022/04/24 07:54:25;;;;;;;9.47;6.07;;;;;;;;;;5010834;28;20432;-70
2022/04/24 07:56:50;;;;;;;7.00;5.57;;;;;;;;;;5011060;28;20449;-70
2022/04/24 07:59:15;;;;;;;9.07;6.13;;;;;;;;;;5011338;28;20270;-69
2022/04/24 08:01:40;;;;;;;6.03;5.20;;;;;;;;;;5010159;28;20460;-71
2022/04/24 08:04:06;;;;;;;6.47;5.87;;;;;;;;;;5004554;28;20211;-71
2022/04/24 08:06:31;;;;;;;7.68;5.88;;;;;;;;;;5003025;28;20452;-70
2022/04/24 08:08:56;;;;;;;7.13;6.00;;;;;;;;;;5012569;28;20172;-70
2022/04/24 08:11:21;;;;;;;6.30;5.45;;;;;;;;;;5011864;28;20989;-71
2022/04/24 08:13:46;;;;;;;5.70;5.20;;;;;;;;;;5011052;28;20416;-70
2022/04/24 08:16:11;;;;;;;6.68;5.40;;;;;;;;;;5006455;28;20525;-70
2022/04/24 08:18:37;;;;;;;5.57;5.07;;;;;;;;;;5005714;28;20601;-70
2022/04/24 08:21:02;;;;;;;6.38;5.78;;;;;;;;;;5010252;28;20531;-70
2022/04/24 08:23:28;;;;;;;5.88;5.30;;;;;;;;;;5008906;28;20209;-70
2022/04/24 08:25:54;;;;;;;6.70;6.00;;;;;;;;;;5009833;28;20167;-70
2022/04/24 08:28:21;;;;;;;9.80;5.53;;;;;;;;;;5010246;28;20171;-70
2022/04/24 08:30:48;;;;;;;6.45;5.35;;;;;;;;;;5011378;28;20186;-70
2022/04/24 08:33:15;;;;;;;6.07;5.57;;;;;;;;;;5007426;28;20267;-70
2022/04/24 08:35:40;;;;;;;5.85;5.35;;;;;;;;;;5011236;28;20185;-71
2022/04/24 08:38:05;;;;;;;6.00;5.47;;;;;;;;;;5010552;28;20258;-71
2022/04/24 08:40:31;;;;;;;8.38;6.10;;;;;;;;;;5011367;28;20579;-69
2022/04/24 08:42:56;;;;;;;6.60;5.75;;;;;;;;;;5006824;28;20194;-69
2022/04/24 08:45:28;;;;;;;6.65;6.05;;;;;;;;;;5010566;28;20175;-69
2022/04/24 08:47:54;;;;;;;5.75;5.10;;;;;;;;;;5010751;28;20179;-69
2022/04/24 08:50:19;;;;;;;6.57;5.55;;;;;;;;;;5008696;28;20588;-70
2022/04/24 08:52:45;;;;;;;6.35;5.72;;;;;;;;;;5011853;28;20186;-70
2022/04/24 08:55:11;;;;;;;6.75;5.53;;;;;;;;;;5011023;28;20688;-69
2022/04/24 08:57:36;;;;;;;6.00;5.50;;;;;;;;;;5015172;28;20676;-69
2022/04/24 09:00:03;;;;;;;5.82;5.32;;;;;;;;;;5010864;28;20207;-70
2022/04/24 09:02:28;;;;;;;8.85;5.50;;;;;;;;;;5011523;28;20170;-69
2022/04/24 09:04:53;;;;;;;6.03;5.40;;;;;;;;;;5010821;28;20182;-69
2022/04/24 09:07:19;;;;;;;5.93;5.30;;;;;;;;;;5016738;28;20218;-70
2022/04/24 09:09:48;;;;;;;7.43;5.25;;;;;;;;;;5003890;28;20207;-70
2022/04/24 09:12:13;;;;;;;6.68;5.13;;;;;;;;;;5019153;28;20175;-69
2022/04/24 09:14:38;;;;;;;7.10;5.95;;;;;;;;;;5011940;28;20167;-69
2022/04/24 09:17:14;;;;;;;5.22;4.72;;;;;;;;;;5011247;28;20649;-69
2022/04/24 09:19:39;;;;;;;5.15;4.72;;;;;;;;;;5010251;28;20233;-70
2022/04/24 09:22:06;;;;;;;5.70;5.20;;;;;;;;;;5011150;28;20248;-69
2022/04/24 09:24:49;;;;;;;5.68;5.18;;;;;;;;;;5008782;28;20202;-69
2022/04/24 09:27:27;;;;;;;5.38;4.85;;;;;;;;;;5009512;28;20696;-69
2022/04/24 09:29:55;;;;;;;5.38;4.88;;;;;;;;;;5011163;28;20178;-70
2022/04/24 09:32:20;;;;;;;8.52;5.43;;;;;;;;;;5011646;28;20274;-69
2022/04/24 09:34:46;;;;;;;5.65;4.93;;;;;;;;;;5015720;28;20669;-70
2022/04/24 09:37:11;;;;;;;5.70;5.20;;;;;;;;;;5013541;28;20171;-70
2022/04/24 09:39:37;;;;;;;5.88;4.82;;;;;;;;;;5014089;28;20309;-69
2022/04/24 09:42:03;;;;;;;5.85;5.38;;;;;;;;;;5015341;28;20194;-69
2022/04/24 09:44:55;;;;;;;5.05;4.65;;;;;;;;;;5014953;28;20289;-69
2022/04/24 09:47:23;;;;;;;6.15;5.65;;;;;;;;;;5011440;28;20702;-69
2022/04/24 09:49:50;;;;;;;5.25;4.75;;;;;;;;;;5012873;28;20175;-69
2022/04/24 09:52:16;;;;;;;5.28;4.80;;;;;;;;;;5014468;28;20258;-69
2022/04/24 09:54:42;;;;;;;5.63;5.13;;;;;;;;;;5014562;28;20202;-69
2022/04/24 09:57:11;;;;;;;5.55;4.97;;;;;;;;;;5017706;28;20653;-69
2022/04/24 09:59:38;;;;;;;7.88;5.20;;;;;;;;;;5013280;28;20614;-69
2022/04/24 10:02:04;;;;;;;7.10;5.55;;;;;;;;;;5003040;28;20466;-69
2022/04/24 10:04:29;;;;;;;6.07;5.10;;;;;;;;;;5005974;28;20533;-69
2022/04/24 10:06:55;;;;;;;5.40;4.97;;;;;;;;;;5007416;28;20270;-70
2022/04/24 10:09:20;;;;;;;7.43;5.82;;;;;;;;;;5009279;28;20548;-69
2022/04/24 10:11:46;;;;;;;5.88;5.22;;;;;;;;;;5013500;28;20199;-69
2022/04/24 10:14:13;;;;;;;8.05;5.13;;;;;;;;;;5016441;28;20523;-69
2022/04/24 10:16:44;;;;;;;6.53;4.72;;;;;;;;;;5014149;28;20186;-69
2022/04/24 10:19:09;;;;;;;5.75;5.22;;;;;;;;;;5008109;28;20663;-69
2022/04/24 10:21:41;;;;;;;5.43;4.82;;;;;;;;;;5005442;28;20215;-69
2022/04/24 10:24:07;;;;;;;5.68;4.82;;;;;;;;;;5013288;28;20487;-69
2022/04/24 10:26:32;;;;;;;7.25;5.40;;;;;;;;;;5008544;28;20217;-69
2022/04/24 10:29:03;;;;;;;5.85;5.35;;;;;;;;;;5009489;28;20175;-69
2022/04/24 10:31:28;;;;;;;7.40;5.07;;;;;;;;;;5012686;28;20764;-69
2022/04/24 10:33:55;;;;;;;6.00;5.47;;;;;;;;;;5013043;28;20265;-68
2022/04/24 10:36:20;;;;;;;5.70;5.10;;;;;;;;;;5015401;28;20270;-69
2022/04/24 10:38:47;;;;;;;8.48;5.10;;;;;;;;;;5013201;28;20199;-69
2022/04/24 10:41:29;;;;;;;5.80;5.22;;;;;;;;;;5009178;28;20202;-69
2022/04/24 10:43:59;;;;;;;6.65;5.00;;;;;;;;;;5006877;28;20659;-69
2022/04/24 10:46:26;;;;;;;7.55;4.90;;;;;;;;;;5009448;28;20176;-73
2022/04/24 10:48:51;;;;;;;4.88;4.43;;;;;;;;;;5010008;28;20190;-76
2022/04/24 10:51:27;;;;;;;4.85;4.43;;;;;;;;;;5010299;28;20195;-73
2022/04/24 10:53:57;;;;;;;5.90;5.30;;;;;;;;;;5010774;28;20179;-75
2022/04/24 10:56:22;;;;;;;5.47;4.97;;;;;;;;;;5014133;28;20186;-75
2022/04/24 10:58:51;;;;;;;5.13;4.65;;;;;;;;;;5012738;28;20198;-75
2022/04/24 11:01:17;;;;;;;5.40;4.95;;;;;;;;;;5011302;28;20301;-74
2022/04/24 11:03:44;;;;;;;5.10;4.47;;;;;;;;;;5009015;28;20203;-76
2022/04/24 11:06:19;;;;;;;5.22;4.72;;;;;;;;;;5010637;28;20171;-75
2022/04/24 11:08:44;;;;;;;6.72;4.85;;;;;;;;;;5007504;28;20187;-75
2022/04/24 11:11:10;;;;;;;4.85;4.45;;;;;;;;;;5011820;28;20210;-75
2022/04/24 11:13:36;;;;;;;7.68;5.32;;;;;;;;;;5007382;28;20180;-69
2022/04/24 11:16:02;;;;;;;5.53;5.03;;;;;;;;;;5015390;28;20354;-69
2022/04/24 11:18:27;;;;;;;5.70;5.13;;;;;;;;;;5004042;28;20179;-69
2022/04/24 11:21:01;;;;;;;5.40;4.90;;;;;;;;;;5009018;28;20225;-69
2022/04/24 11:23:31;;;;;;;5.80;4.60;;;;;;;;;;5012137;28;20688;-69
2022/04/24 11:25:56;;;;;;;6.05;5.50;;;;;;;;;;5012530;28;20186;-70
2022/04/24 11:28:38;;;;;;;6.25;5.38;;;;;;;;;;5004455;28;20568;-68
2022/04/24 11:31:22;;;;;;;5.63;4.82;;;;;;;;;;5011697;28;20198;-69
2022/04/24 11:34:00;;;;;;;7.35;5.03;;;;;;;;;;5005345;28;20171;-69
2022/04/24 11:36:31;;;;;;;5.40;4.22;;;;;;;;;;5011169;28;20183;-69
2022/04/24 11:38:57;;;;;;;6.22;5.43;;;;;;;;;;5012835;28;20186;-69
2022/04/24 11:41:26;;;;;;;5.82;4.75;;;;;;;;;;5010857;28;20230;-69
2022/04/24 11:43:58;;;;;;;5.13;4.72;;;;;;;;;;5012092;28;20237;-69
2022/04/24 11:51:51;;;;;;;6.43;5.18;;;;;;;;;;5004996;28;20272;-69
2022/04/24 11:54:17;;;;;;;4.95;4.53;;;;;;;;;;5007866;28;20187;-69
2022/04/24 11:56:42;;;;;;;5.45;4.72;;;;;;;;;;4998711;28;20179;-70
2022/04/24 11:59:14;;;;;;;5.18;4.35;;;;;;;;;;5008552;28;20182;-70
2022/04/24 12:01:40;;;;;;;5.63;5.10;;;;;;;;;;5006124;28;20684;-70
2022/04/24 12:04:05;;;;;;;5.93;5.07;;;;;;;;;;5009992;28;20218;-69
2022/04/24 12:06:34;;;;;;;4.82;4.22;;;;;;;;;;5005563;28;20752;-70
2022/04/24 12:09:07;;;;;;;5.10;4.60;;;;;;;;;;5007107;28;20238;-69
2022/04/24 12:11:32;;;;;;;4.10;3.70;;;;;;;;;;5004898;28;20613;-70
2022/04/24 12:13:58;;;;;;;4.53;3.80;;;;;;;;;;4998971;28;20179;-70
2022/04/24 12:16:24;;;;;;;5.18;4.22;;;;;;;;;;5009868;28;20648;-70
2022/04/24 12:18:53;;;;;;;7.43;4.70;;;;;;;;;;5007693;28;20183;-70
2022/04/24 12:21:19;;;;;;;7.75;4.00;;;;;;;;;;5007498;28;20464;-70
2022/04/24 12:23:51;;;;;;;5.95;4.32;;;;;;;;;;5005766;28;21702;-69
2022/04/24 12:26:16;;;;;;;6.07;4.53;;;;;;;;;;5003504;28;20215;-69
2022/04/24 12:28:41;;;;;;;4.07;3.70;;;;;;;;;;5004685;28;20275;-69
2022/04/24 12:31:07;;;;;;;4.27;3.90;;;;;;;;;;5009023;28;20459;-69
2022/04/24 12:33:44;;;;;;;6.78;4.15;;;;;;;;;;5010138;28;20834;-69
2022/04/24 12:36:10;;;;;;;6.07;3.63;;;;;;;;;;5010195;28;20559;-69
2022/04/24 12:38:36;;;;;;;6.55;4.00;;;;;;;;;;5008813;28;20185;-70
2022/04/24 12:41:01;;;;;;;3.92;3.55;;;;;;;;;;5010197;28;20206;-70
2022/04/24 12:43:30;;;;;;;5.03;4.07;;;;;;;;;;5004845;28;20234;-70
2022/04/24 12:45:56;;;;;;;6.00;4.15;;;;;;;;;;5013104;28;20167;-70
2022/04/24 12:48:23;;;;;;;4.30;3.63;;;;;;;;;;5010365;28;20201;-69
2022/04/24 12:50:50;;;;;;;5.53;3.40;;;;;;;;;;5006155;28;20226;-69
2022/04/24 12:53:15;;;;;;;4.25;3.20;;;;;;;;;;5010511;28;20563;-69
2022/04/24 12:55:40;;;;;;;3.87;3.47;;;;;;;;;;5008717;28;20195;-69
2022/04/24 12:58:06;;;;;;;4.35;3.63;;;;;;;;;;5010471;28;20435;-69
2022/04/24 13:00:35;;;;;;;5.57;3.75;;;;;;;;;;5009448;28;20714;-69
2022/04/24 13:03:00;;;;;;;3.55;3.17;;;;;;;;;;5010702;28;20771;-69
2022/04/24 13:05:29;;;;;;;4.37;3.13;;;;;;;;;;5006869;28;20257;-69
2022/04/24 13:07:54;;;;;;;4.25;3.45;;;;;;;;;;5013521;28;20416;-70
2022/04/24 13:10:19;;;;;;;4.17;3.33;;;;;;;;;;5014183;28;20620;-69
2022/04/24 13:12:45;;;;;;;5.10;3.53;;;;;;;;;;5014552;28;20400;-69
2022/04/24 13:15:10;;;;;;;3.13;2.77;;;;;;;;;;5009799;28;20862;-70
2022/04/24 13:20:19;;;;;;;4.50;3.65;;;;;;;;;;5004578;28;20451;-69
2022/04/24 13:22:44;;;;;;;3.75;3.38;;;;;;;;;;5012932;28;20597;-69
2022/04/24 13:25:09;;;;;;;3.40;3.13;;;;;;;;;;5016924;28;20621;-70
2022/04/24 13:27:34;;;;;;;3.60;3.30;;;;;;;;;;5009971;28;20432;-69
2022/04/24 13:29:59;;;;;;;4.07;3.20;;;;;;;;;;5015039;28;20973;-69
2022/04/24 13:32:27;;;;;;;5.80;2.77;;;;;;;;;;5014066;28;20463;-69
2022/04/24 13:34:52;;;;;;;5.13;3.40;;;;;;;;;;5011357;28;20519;-69
2022/04/24 13:40:01;;;;;;;5.72;3.08;;;;;;;;;;5011209;28;20599;-69
2022/04/24 13:42:26;;;;;;;2.88;2.65;;;;;;;;;;5011997;28;20295;-69
2022/04/24 13:44:51;;;;;;;3.45;2.65;;;;;;;;;;5012456;28;20171;-69
2022/04/24 13:47:20;;;;;;;3.33;3.03;;;;;;;;;;5009266;28;20175;-69
2022/04/24 13:49:46;;;;;;;4.68;3.15;;;;;;;;;;5015212;28;20420;-69
2022/04/24 13:52:12;;;;;;;3.35;3.10;;;;;;;;;;5012143;28;20176;-69
2022/04/24 13:54:37;;;;;;;4.68;2.83;;;;;;;;;;5012835;28;20278;-69
2022/04/24 13:57:03;;;;;;;4.22;3.15;;;;;;;;;;5012736;28;20179;-69
2022/04/24 13:59:28;;;;;;;3.20;2.90;;;;;;;;;;5011183;28;20191;-69
2022/04/24 14:01:53;;;;;;;4.05;3.10;;;;;;;;;;5005768;28;20218;-69
2022/04/24 14:04:19;;;;;;;4.87;3.00;;;;;;;;;;5012996;28;20207;-69
2022/04/24 14:06:45;;;;;;;6.38;3.72;;;;;;;;;;5012902;28;20400;-69
2022/04/24 14:09:10;;;;;;;3.55;2.90;;;;;;;;;;5013583;28;20182;-69
2022/04/24 14:11:35;;;;;;;4.00;3.45;;;;;;;;;;5014122;28;20318;-68
2022/04/24 14:14:01;;;;;;;4.13;3.45;;;;;;;;;;5010768;28;20190;-69
2022/04/24 14:16:26;;;;;;;4.05;2.90;;;;;;;;;;5012074;28;20190;-69
2022/04/24 14:18:51;;;;;;;3.55;3.08;;;;;;;;;;5009914;28;20179;-69
2022/04/24 14:21:16;;;;;;;3.17;2.87;;;;;;;;;;5009774;28;20203;-69
2022/04/24 14:23:43;;;;;;;3.50;2.90;;;;;;;;;;5001933;28;20459;-69
2022/04/24 14:26:08;;;;;;;3.35;2.80;;;;;;;;;;5013222;28;20464;-69
2022/04/24 14:28:33;;;;;;;3.30;3.00;;;;;;;;;;5009306;28;20185;-69
2022/04/24 14:30:58;;;;;;;3.53;2.53;;;;;;;;;;5012408;28;20448;-69
2022/04/24 14:33:23;;;;;;;3.40;2.43;;;;;;;;;;5011831;28;20539;-70
2022/04/24 14:35:49;;;;;;;3.95;2.38;;;;;;;;;;5008592;28;20409;-69
2022/04/24 14:38:14;;;;;;;4.35;2.40;;;;;;;;;;5010779;28;20191;-69
2022/04/24 14:40:40;;;;;;;2.58;2.38;;;;;;;;;;5010658;28;20213;-69
2022/04/24 14:43:06;;;;;;;2.80;2.55;;;;;;;;;;5006238;28;20293;-69
2022/04/24 14:56:27;;;;;;;3.22;2.13;;;;;;;;;;5011548;28;20185;-70